createdAt,value
2022-10-21T00:04:13.014Z,10.30
2022-10-21T00:06:41.932Z,10.30
2022-10-21T00:09:10.982Z,10.30
2022-10-21T00:11:41.542Z,10.30
2022-10-21T00:14:10.642Z,10.30
2022-10-21T00:16:39.666Z,10.30
2022-10-21T00:19:08.829Z,10.30
2022-10-21T00:21:38.229Z,10.40
2022-10-21T00:24:07.726Z,10.50
2022-10-21T00:26:38.484Z,10.50
2022-10-21T00:29:09.155Z,10.60
2022-10-21T00:31:38.126Z,10.60
2022-10-21T00:34:07.087Z,10.60
2022-10-21T00:36:36.106Z,10.60
2022-10-21T00:39:05.619Z,10.60
2022-10-21T00:41:34.840Z,10.60
2022-10-21T00:44:09.201Z,10.50
2022-10-21T00:46:45.862Z,10.50
2022-10-21T00:49:27.076Z,10.50
2022-10-21T00:52:03.038Z,10.50
2022-10-21T00:54:33.272Z,10.50
2022-10-21T00:57:02.263Z,10.50
2022-10-21T00:59:39.831Z,10.50
2022-10-21T01:02:09.451Z,10.60
2022-10-21T01:04:38.522Z,10.60
2022-10-21T01:07:07.772Z,10.60
2022-10-21T01:09:36.839Z,10.60
2022-10-21T01:12:16.585Z,10.60
2022-10-21T01:14:58.987Z,10.60
2022-10-21T01:17:48.230Z,10.60
2022-10-21T01:20:59.387Z,10.60
2022-10-21T01:24:07.096Z,10.50
2022-10-21T01:27:12.629Z,10.60
2022-10-21T01:30:25.591Z,10.70
2022-10-21T01:33:42.388Z,10.70
2022-10-21T01:36:30.407Z,10.80
2022-10-21T01:39:15.042Z,10.80
2022-10-21T01:41:54.072Z,10.80
2022-10-21T01:44:31.231Z,10.80
2022-10-21T01:47:08.051Z,10.80
2022-10-21T01:49:44.047Z,10.80
2022-10-21T01:52:15.578Z,10.90
2022-10-21T01:54:54.283Z,10.80
2022-10-21T01:57:31.150Z,10.80
2022-10-21T02:00:02.081Z,10.70
2022-10-21T02:02:38.918Z,10.70
2022-10-21T02:05:17.476Z,10.70
2022-10-21T02:07:46.554Z,10.70
2022-10-21T02:10:16.080Z,10.70
2022-10-21T02:12:50.551Z,10.70
2022-10-21T02:15:23.176Z,10.70
2022-10-21T02:17:59.224Z,10.70
2022-10-21T02:20:33.416Z,10.70
2022-10-21T02:23:03.988Z,10.70
2022-10-21T02:25:40.181Z,10.70
2022-10-21T02:28:10.020Z,10.70
2022-10-21T02:30:57.002Z,10.80
2022-10-21T02:33:42.507Z,10.70
2022-10-21T02:36:24.201Z,10.80
2022-10-21T02:39:03.329Z,10.70
2022-10-21T02:41:35.650Z,10.70
2022-10-21T02:44:06.636Z,10.70
2022-10-21T02:46:39.560Z,10.70
2022-10-21T02:49:10.912Z,10.70
2022-10-21T02:51:40.810Z,10.70
2022-10-21T02:54:09.925Z,10.70
2022-10-21T02:56:39.119Z,10.70
2022-10-21T02:59:07.992Z,10.70
2022-10-21T03:01:36.949Z,10.70
2022-10-21T03:04:06.172Z,10.80
2022-10-21T03:06:36.778Z,10.80
2022-10-21T03:09:06.517Z,10.80
2022-10-21T03:11:35.483Z,10.80
2022-10-21T03:14:04.470Z,10.80
2022-10-21T03:16:33.693Z,10.80
2022-10-21T03:19:02.481Z,10.80
2022-10-21T03:21:31.555Z,10.80
2022-10-21T03:24:02.589Z,10.80
2022-10-21T03:26:32.848Z,10.90
2022-10-21T03:29:01.816Z,10.90
2022-10-21T03:31:30.735Z,11.00
2022-10-21T03:33:59.680Z,11.00
2022-10-21T03:36:28.573Z,11.10
2022-10-21T03:38:57.677Z,11.10
2022-10-21T03:41:28.056Z,11.10
2022-10-21T03:43:57.135Z,11.10
2022-10-21T03:46:26.278Z,11.10
2022-10-21T03:48:57.300Z,11.10
2022-10-21T03:51:30.019Z,11.10
2022-10-21T03:53:59.014Z,11.10
2022-10-21T03:56:29.620Z,11.20
2022-10-21T03:58:58.947Z,11.20
2022-10-21T04:01:28.311Z,11.20
2022-10-21T04:03:57.338Z,11.30
2022-10-21T04:06:26.351Z,11.30
2022-10-21T04:08:55.508Z,11.30
2022-10-21T04:11:25.085Z,11.30
2022-10-21T04:13:55.438Z,11.30
2022-10-21T04:16:25.100Z,11.30
2022-10-21T04:18:54.118Z,11.30
2022-10-21T04:23:57.170Z,11.30
2022-10-21T04:26:26.113Z,11.20
2022-10-21T04:28:56.512Z,11.20
2022-10-21T04:31:29.799Z,11.20
2022-10-21T04:34:01.105Z,11.20
2022-10-21T04:36:30.177Z,11.20
2022-10-21T04:38:59.017Z,11.20
2022-10-21T04:41:28.476Z,11.20
2022-10-21T04:43:58.871Z,11.30
2022-10-21T04:46:28.308Z,11.20
2022-10-21T04:48:57.497Z,11.20
2022-10-21T04:51:26.550Z,11.20
2022-10-21T04:53:55.633Z,11.10
2022-10-21T04:56:24.611Z,11.10
2022-10-21T04:58:53.649Z,11.00
2022-10-21T05:01:24.071Z,11.00
2022-10-21T05:03:53.146Z,11.00
2022-10-21T05:06:22.128Z,10.90
2022-10-21T05:08:51.259Z,10.80
2022-10-21T05:11:20.275Z,10.70
2022-10-21T05:13:49.302Z,10.70
2022-10-21T05:16:18.463Z,10.70
2022-10-21T05:18:49.103Z,10.60
2022-10-21T05:21:20.415Z,10.60
2022-10-21T05:23:52.834Z,10.60
2022-10-21T05:26:24.888Z,10.50
2022-10-21T05:28:53.840Z,10.50
2022-10-21T05:31:22.785Z,10.40
2022-10-21T05:33:53.247Z,10.30
2022-10-21T05:36:24.049Z,10.30
2022-10-21T05:38:53.378Z,10.20
2022-10-21T05:41:22.408Z,10.10
2022-10-21T05:43:51.715Z,10.10
2022-10-21T05:46:20.632Z,10.10
2022-10-21T05:48:49.572Z,10.00
2022-10-21T05:51:25.609Z,10.00
2022-10-21T05:53:55.043Z,9.90
2022-10-21T05:56:24.121Z,9.90
2022-10-21T05:58:53.223Z,9.90
2022-10-21T06:01:25.331Z,9.80
2022-10-21T06:03:54.772Z,9.80
2022-10-21T06:06:26.265Z,9.80
2022-10-21T06:08:57.031Z,9.90
2022-10-21T06:11:28.215Z,9.90
2022-10-21T06:13:58.095Z,9.90
2022-10-21T06:16:27.660Z,9.90
2022-10-21T06:18:59.563Z,9.90
2022-10-21T06:21:32.562Z,10.00
2022-10-21T06:24:02.540Z,10.00
2022-10-21T06:26:34.693Z,10.10
2022-10-21T06:29:06.465Z,10.10
2022-10-21T06:31:36.039Z,10.20
2022-10-21T06:34:05.455Z,10.20
2022-10-21T06:36:38.572Z,10.30
2022-10-21T06:39:10.179Z,10.40
2022-10-21T06:41:41.434Z,10.50
2022-10-21T06:44:10.617Z,10.60
2022-10-21T06:46:39.934Z,10.70
2022-10-21T06:49:09.158Z,10.80
2022-10-21T06:51:40.739Z,10.80
2022-10-21T06:54:10.368Z,10.80
2022-10-21T06:56:41.852Z,10.90
2022-10-21T06:59:13.474Z,10.90
2022-10-21T07:01:59.123Z,11.00
2022-10-21T07:04:29.998Z,11.00
2022-10-21T07:07:00.624Z,11.20
2022-10-21T07:09:30.894Z,11.20
2022-10-21T07:12:02.348Z,11.30
2022-10-21T07:14:31.661Z,11.50
2022-10-21T07:17:00.759Z,11.60
2022-10-21T07:19:29.686Z,11.70
2022-10-21T07:22:01.649Z,11.90
2022-10-21T07:24:30.905Z,12.10
2022-10-21T07:27:00.110Z,12.30
2022-10-21T07:29:29.306Z,12.40
2022-10-21T07:31:59.594Z,12.60
2022-10-21T07:34:28.723Z,12.90
2022-10-21T07:36:58.024Z,13.00
2022-10-21T07:39:29.056Z,13.10
2022-10-21T07:41:59.769Z,13.40
2022-10-21T07:44:29.170Z,13.70
2022-10-21T07:46:58.451Z,13.80
2022-10-21T07:49:27.501Z,13.60
2022-10-21T07:51:57.057Z,13.50
2022-10-21T07:54:27.543Z,13.30
2022-10-21T07:56:56.620Z,13.10
2022-10-21T07:59:25.872Z,13.10
2022-10-21T08:01:54.849Z,13.20
2022-10-21T08:04:30.015Z,13.40
2022-10-21T08:07:00.088Z,13.70
2022-10-21T08:09:30.700Z,14.10
2022-10-21T08:11:59.686Z,14.20
2022-10-21T08:14:28.742Z,14.30
2022-10-21T08:16:57.796Z,14.40
2022-10-21T08:19:29.969Z,14.40
2022-10-21T08:21:59.231Z,14.40
2022-10-21T08:24:30.311Z,14.50
2022-10-21T08:26:59.238Z,14.60
2022-10-21T08:29:28.383Z,14.70
2022-10-21T08:31:57.778Z,14.70
2022-10-21T08:34:26.890Z,14.80
2022-10-21T08:36:55.874Z,14.80
2022-10-21T08:39:25.678Z,14.70
2022-10-21T08:42:13.191Z,14.70
2022-10-21T08:44:54.644Z,14.60
2022-10-21T08:47:35.698Z,14.60
2022-10-21T08:50:13.487Z,14.80
2022-10-21T08:52:48.792Z,14.80
2022-10-21T08:55:24.429Z,14.90
2022-10-21T08:57:56.179Z,14.80
2022-10-21T09:00:37.335Z,14.70
2022-10-21T09:03:41.957Z,14.80
2022-10-21T09:06:28.659Z,14.90
2022-10-21T09:09:10.257Z,15.10
2022-10-21T09:12:00.992Z,15.30
2022-10-21T09:15:19.252Z,15.50
2022-10-21T09:18:18.059Z,15.30
2022-10-21T09:21:01.657Z,14.90
2022-10-21T09:23:58.788Z,14.60
2022-10-21T09:26:39.022Z,14.40
2022-10-21T09:29:29.862Z,14.30
2022-10-21T09:32:15.375Z,14.30
2022-10-21T09:34:56.515Z,14.20
2022-10-21T09:37:35.671Z,14.00
2022-10-21T09:40:17.140Z,14.20
2022-10-21T09:42:48.123Z,14.30
2022-10-21T09:45:29.913Z,14.40
2022-10-21T09:48:04.951Z,14.30
2022-10-21T09:50:36.217Z,14.40
2022-10-21T09:53:14.723Z,14.30
2022-10-21T09:55:47.923Z,14.30
2022-10-21T09:58:28.426Z,14.40
2022-10-21T10:00:58.892Z,14.40
2022-10-21T10:03:39.663Z,14.40
2022-10-21T10:06:09.396Z,14.50
2022-10-21T10:08:42.561Z,14.60
2022-10-21T10:11:22.873Z,14.80
2022-10-21T10:13:54.618Z,14.80
2022-10-21T10:16:29.592Z,14.80
2022-10-21T10:19:23.119Z,14.80
2022-10-21T10:22:15.051Z,15.10
2022-10-21T10:24:45.893Z,15.40
2022-10-21T10:27:20.839Z,15.90
2022-10-21T10:29:57.617Z,16.40
2022-10-21T10:32:33.791Z,16.80
2022-10-21T10:35:09.042Z,17.00
2022-10-21T10:37:40.316Z,16.90
2022-10-21T10:40:19.305Z,16.70
2022-10-21T10:42:48.523Z,16.60
2022-10-21T10:45:22.997Z,16.30
2022-10-21T10:47:57.955Z,15.90
2022-10-21T10:50:49.784Z,15.70
2022-10-21T10:53:35.063Z,15.70
2022-10-21T10:56:23.615Z,15.60
2022-10-21T10:59:07.351Z,15.40
2022-10-21T11:01:46.290Z,15.10
2022-10-21T11:04:25.049Z,15.10
2022-10-21T11:07:07.499Z,15.10
2022-10-21T11:09:37.185Z,15.30
2022-10-21T11:12:20.538Z,15.50
2022-10-21T11:14:55.854Z,15.80
2022-10-21T11:17:32.078Z,16.00
2022-10-21T11:20:15.349Z,15.90
2022-10-21T11:23:00.718Z,15.70
2022-10-21T11:25:41.156Z,15.60
2022-10-21T11:28:27.928Z,15.60
2022-10-21T11:31:15.096Z,15.60
2022-10-21T11:33:56.049Z,15.60
2022-10-21T11:36:37.509Z,15.90
2022-10-21T11:39:53.632Z,16.00
2022-10-21T11:42:33.616Z,16.00
2022-10-21T11:45:26.675Z,16.20
2022-10-21T11:48:08.863Z,16.30
2022-10-21T11:50:47.486Z,16.50
2022-10-21T11:53:43.407Z,16.50
2022-10-21T11:56:29.145Z,16.70
2022-10-21T11:59:20.072Z,16.80
2022-10-21T12:02:02.183Z,17.10
2022-10-21T12:04:44.611Z,17.00
2022-10-21T12:07:33.199Z,16.90
2022-10-21T12:10:11.575Z,16.80
2022-10-21T12:12:47.761Z,16.80
2022-10-21T12:15:22.047Z,16.70
2022-10-21T12:17:53.301Z,16.70
2022-10-21T12:20:27.197Z,16.80
2022-10-21T12:23:04.178Z,17.10
2022-10-21T12:25:48.034Z,17.10
2022-10-21T12:28:31.841Z,17.00
2022-10-21T12:31:17.189Z,16.80
2022-10-21T12:33:52.417Z,16.70
2022-10-21T12:36:44.831Z,16.50
2022-10-21T12:39:40.902Z,16.40
2022-10-21T12:42:21.405Z,16.30
2022-10-21T12:44:54.778Z,16.30
2022-10-21T12:47:31.075Z,16.00
2022-10-21T12:50:29.221Z,15.90
2022-10-21T12:53:33.682Z,15.90
2022-10-21T12:56:04.148Z,15.90
2022-10-21T12:58:41.670Z,16.00
2022-10-21T13:01:40.340Z,16.00
2022-10-21T13:04:48.961Z,16.10
2022-10-21T13:07:39.608Z,16.10
2022-10-21T13:10:32.824Z,16.00
2022-10-21T13:13:35.343Z,16.00
2022-10-21T13:16:39.622Z,16.00
2022-10-21T13:19:38.604Z,16.20
2022-10-21T13:22:16.036Z,16.20
2022-10-21T13:24:48.075Z,16.00
2022-10-21T13:30:03.514Z,15.80
2022-10-21T13:32:38.821Z,15.80
2022-10-21T13:35:37.188Z,15.70
2022-10-21T13:38:21.500Z,15.50
2022-10-21T13:40:54.897Z,15.50
2022-10-21T13:43:30.931Z,15.50
2022-10-21T13:46:09.923Z,15.60
2022-10-21T13:48:47.446Z,15.60
2022-10-21T13:51:23.816Z,15.50
2022-10-21T13:53:59.871Z,15.50
2022-10-21T13:56:35.286Z,15.40
2022-10-21T13:59:09.887Z,15.40
2022-10-21T14:01:50.280Z,15.50
2022-10-21T14:04:24.587Z,15.60
2022-10-21T14:06:58.291Z,15.70
2022-10-21T14:09:32.284Z,15.80
2022-10-21T14:12:06.154Z,16.00
2022-10-21T14:14:39.974Z,16.10
2022-10-21T14:17:18.220Z,16.20
2022-10-21T14:19:55.039Z,16.40
2022-10-21T14:22:29.347Z,16.30
2022-10-21T14:25:02.121Z,16.30
2022-10-21T14:27:34.352Z,16.20
2022-10-21T14:30:10.322Z,16.40
2022-10-21T14:32:40.626Z,16.30
2022-10-21T14:35:33.427Z,16.20
2022-10-21T14:38:05.474Z,16.10
2022-10-21T14:40:38.539Z,16.00
2022-10-21T14:43:20.981Z,15.90
2022-10-21T14:45:53.226Z,15.90
2022-10-21T14:48:30.161Z,15.90
2022-10-21T14:51:04.712Z,15.80
2022-10-21T14:53:39.788Z,15.80
2022-10-21T14:56:18.015Z,15.80
2022-10-21T14:58:51.789Z,15.70
2022-10-21T15:01:23.363Z,15.70
2022-10-21T15:03:55.373Z,15.70
2022-10-21T15:06:29.205Z,15.60
2022-10-21T15:09:19.949Z,15.50
2022-10-21T15:11:49.504Z,15.40
2022-10-21T15:14:31.969Z,15.30
2022-10-21T15:17:05.300Z,15.20
2022-10-21T15:19:49.996Z,15.10
2022-10-21T15:22:31.356Z,15.10
2022-10-21T15:25:08.702Z,15.00
2022-10-21T15:27:45.136Z,14.90
2022-10-21T15:30:22.666Z,14.80
2022-10-21T15:32:53.154Z,14.80
2022-10-21T15:35:26.906Z,14.70
2022-10-21T15:37:57.381Z,14.60
2022-10-21T15:40:26.622Z,14.60
2022-10-21T15:42:56.846Z,14.50
2022-10-21T15:45:26.885Z,14.50
2022-10-21T15:47:57.440Z,14.40
2022-10-21T15:50:28.555Z,14.40
2022-10-21T15:52:59.008Z,14.30
2022-10-21T15:55:28.210Z,14.30
2022-10-21T15:57:57.218Z,14.20
2022-10-21T16:00:26.132Z,14.20
2022-10-21T16:02:55.169Z,14.20
2022-10-21T16:05:24.870Z,14.10
2022-10-21T16:07:54.689Z,14.00
2022-10-21T16:10:43.386Z,13.90
2022-10-21T16:13:14.828Z,13.70
2022-10-21T16:16:09.091Z,13.60
2022-10-21T16:18:44.056Z,13.50
2022-10-21T16:21:19.588Z,13.40
2022-10-21T16:23:57.078Z,13.40
2022-10-21T16:26:35.596Z,13.30
2022-10-21T16:29:09.299Z,13.10
2022-10-21T16:31:38.619Z,13.20
2022-10-21T16:34:07.695Z,13.10
2022-10-21T16:36:38.212Z,13.10
2022-10-21T16:39:14.781Z,13.10
2022-10-21T16:41:45.828Z,13.10
2022-10-21T16:44:14.851Z,13.00
2022-10-21T16:46:51.510Z,12.90
2022-10-21T16:49:26.119Z,12.80
2022-10-21T16:51:57.768Z,12.70
2022-10-21T16:54:26.751Z,12.60
2022-10-21T16:56:57.665Z,12.60
2022-10-21T16:59:26.723Z,12.50
2022-10-21T17:01:55.664Z,12.50
2022-10-21T17:04:24.768Z,12.40
2022-10-21T17:06:55.208Z,12.40
2022-10-21T17:09:26.448Z,12.30
2022-10-21T17:11:56.938Z,12.20
2022-10-21T17:14:25.985Z,12.30
2022-10-21T17:16:55.197Z,12.20
2022-10-21T17:19:24.368Z,12.20
2022-10-21T17:21:53.542Z,12.10
2022-10-21T17:24:22.499Z,12.10
2022-10-21T17:26:51.603Z,12.20
2022-10-21T17:29:22.218Z,12.20
2022-10-21T17:31:51.932Z,12.20
2022-10-21T17:34:31.924Z,12.30
2022-10-21T17:37:02.176Z,12.40
2022-10-21T17:39:31.271Z,12.40
2022-10-21T17:42:01.042Z,12.30
2022-10-21T17:44:31.829Z,12.20
2022-10-21T17:47:00.971Z,12.10
2022-10-21T17:49:29.838Z,12.00
2022-10-21T17:51:58.819Z,12.00
2022-10-21T17:54:29.930Z,12.10
2022-10-21T17:57:01.109Z,12.20
2022-10-21T17:59:32.933Z,12.40
2022-10-21T18:02:02.110Z,12.40
2022-10-21T18:04:31.896Z,12.40
2022-10-21T18:07:09.865Z,12.30
2022-10-21T18:09:40.162Z,12.40
2022-10-21T18:12:11.367Z,12.70
2022-10-21T18:14:42.126Z,12.90
2022-10-21T18:17:11.961Z,13.00
2022-10-21T18:19:41.041Z,13.20
2022-10-21T18:22:10.234Z,13.20
2022-10-21T18:24:39.633Z,13.20
2022-10-21T18:27:10.110Z,13.10
2022-10-21T18:29:40.522Z,13.20
2022-10-21T18:32:13.753Z,13.10
2022-10-21T18:34:44.028Z,13.20
2022-10-21T18:37:13.139Z,13.30
2022-10-21T18:39:42.400Z,13.40
2022-10-21T18:42:11.486Z,13.80
2022-10-21T18:44:42.091Z,14.00
2022-10-21T18:47:11.356Z,14.20
2022-10-21T18:49:40.384Z,14.30
2022-10-21T18:52:11.592Z,14.40
2022-10-21T18:54:40.585Z,14.50
2022-10-21T18:57:13.150Z,14.60
2022-10-21T18:59:46.201Z,14.60
2022-10-21T19:02:26.332Z,14.60
2022-10-21T19:05:01.269Z,14.60
2022-10-21T19:07:38.011Z,14.60
2022-10-21T19:10:09.075Z,14.60
2022-10-21T19:12:38.471Z,14.50
2022-10-21T19:15:10.948Z,14.40
2022-10-21T19:17:42.066Z,14.30
2022-10-21T19:20:11.884Z,14.40
2022-10-21T19:22:40.882Z,14.40
2022-10-21T19:25:10.823Z,14.40
2022-10-21T19:27:40.012Z,14.40
2022-10-21T19:30:12.706Z,14.40
2022-10-21T19:32:41.992Z,14.50
2022-10-21T19:35:11.240Z,14.50
2022-10-21T19:37:40.418Z,14.50
2022-10-21T19:40:10.388Z,14.40
2022-10-21T19:42:41.378Z,14.40
2022-10-21T19:45:17.178Z,14.40
2022-10-21T19:47:46.394Z,14.30
2022-10-21T19:50:15.380Z,14.20
2022-10-21T19:52:44.679Z,14.10
2022-10-21T19:55:13.941Z,14.00
2022-10-21T19:57:42.995Z,14.00
2022-10-21T20:00:15.245Z,14.00
2022-10-21T20:02:44.170Z,14.00
2022-10-21T20:05:13.181Z,13.90
2022-10-21T20:07:42.620Z,13.90
2022-10-21T20:10:11.970Z,13.90
2022-10-21T20:12:41.378Z,13.80
2022-10-21T20:15:12.772Z,13.70
2022-10-21T20:17:41.677Z,13.70
2022-10-21T20:20:11.578Z,13.60
2022-10-21T20:22:41.012Z,13.50
2022-10-21T20:25:11.191Z,13.40
2022-10-21T20:27:40.264Z,13.40
2022-10-21T20:30:10.833Z,13.30
2022-10-21T20:32:41.432Z,13.30
2022-10-21T20:35:10.806Z,13.30
2022-10-21T20:37:40.925Z,13.40
2022-10-21T20:40:11.386Z,13.40
2022-10-21T20:42:40.388Z,13.40
2022-10-21T20:45:10.655Z,13.40
2022-10-21T20:47:41.341Z,13.40
2022-10-21T20:50:11.690Z,13.40
2022-10-21T20:52:40.639Z,13.30
2022-10-21T20:55:11.101Z,13.30
2022-10-21T20:57:40.391Z,13.20
2022-10-21T21:00:11.700Z,13.10
2022-10-21T21:02:42.120Z,13.10
2022-10-21T21:05:11.760Z,13.10
2022-10-21T21:07:58.502Z,12.90
2022-10-21T21:10:27.704Z,12.80
2022-10-21T21:12:56.999Z,12.70
2022-10-21T21:15:26.069Z,12.70
2022-10-21T21:17:56.451Z,12.80
2022-10-21T21:20:25.645Z,12.80
2022-10-21T21:22:55.964Z,12.80
2022-10-21T21:25:25.016Z,12.90
2022-10-21T21:27:54.030Z,12.90
2022-10-21T21:30:23.082Z,12.80
2022-10-21T21:32:52.008Z,12.80
2022-10-21T21:35:23.228Z,12.80
2022-10-21T21:37:52.433Z,12.90
2022-10-21T21:40:21.446Z,12.90
2022-10-21T21:42:50.562Z,12.90
2022-10-21T21:45:19.732Z,12.90
2022-10-21T21:47:48.787Z,12.90
2022-10-21T21:50:18.036Z,13.00
2022-10-21T21:52:48.640Z,13.00
2022-10-21T21:55:17.825Z,12.90
2022-10-21T21:57:46.928Z,12.80
2022-10-21T22:00:16.828Z,12.80
2022-10-21T22:02:46.247Z,12.70
2022-10-21T22:05:15.931Z,12.70
2022-10-21T22:07:44.867Z,12.60
2022-10-21T22:10:16.095Z,12.60
2022-10-21T22:12:46.070Z,12.70
2022-10-21T22:15:29.716Z,12.70
2022-10-21T22:18:05.830Z,12.60
2022-10-21T22:20:34.864Z,12.60
2022-10-21T22:23:03.911Z,12.50
2022-10-21T22:25:34.468Z,12.60
2022-10-21T22:28:03.404Z,12.70
2022-10-21T22:30:32.471Z,12.70
2022-10-21T22:33:01.432Z,12.70
2022-10-21T22:35:30.495Z,12.80
2022-10-21T22:37:59.741Z,12.80
2022-10-21T22:40:28.869Z,13.00
2022-10-21T22:42:59.340Z,13.00
2022-10-21T22:45:28.311Z,13.10
2022-10-21T22:47:57.264Z,13.20
2022-10-21T22:50:26.343Z,13.20
2022-10-21T22:52:55.428Z,13.30
2022-10-21T22:55:24.403Z,13.40
2022-10-21T22:57:53.403Z,13.50
2022-10-21T23:00:23.810Z,13.50
2022-10-21T23:02:52.872Z,13.60
2022-10-21T23:05:22.049Z,13.50
2022-10-21T23:07:51.136Z,13.50
2022-10-21T23:10:22.536Z,13.50
2022-10-21T23:12:51.496Z,13.50
2022-10-21T23:15:20.929Z,13.40
2022-10-21T23:17:51.337Z,13.40
2022-10-21T23:20:20.562Z,13.60
2022-10-21T23:22:49.697Z,13.70
2022-10-21T23:25:19.607Z,13.90
2022-10-21T23:27:52.154Z,14.20
2022-10-21T23:30:21.897Z,14.40
2022-10-21T23:32:52.492Z,14.60
2022-10-21T23:35:23.955Z,14.80
2022-10-21T23:37:52.908Z,15.00
2022-10-21T23:40:22.528Z,15.00
2022-10-21T23:42:51.444Z,15.10
2022-10-21T23:45:20.702Z,15.10
2022-10-21T23:47:49.824Z,15.20
2022-10-21T23:50:20.507Z,15.20
2022-10-21T23:52:50.493Z,15.20
2022-10-21T23:55:20.205Z,15.30
2022-10-21T23:57:49.248Z,15.30
